Time;durP1;ratioP1;P1;durP2;ratioP2;P2;SDS_P1;SDS_P2;PMS_P1;PMS_P2;Temp;Humidity;BMP_temperature;BMP_pressure;BME280_temperature;BME280_humidity;BME280_pressure;Samples;Min_cycle;Max_cycle;Signal;HPM_P1;HPM_P2
2022/05/17 00:02:04;;;;;;;10.85;3.00;;;15.90;99.90;;;;;;5063237;28;20043;-82
2022/05/17 00:04:30;;;;;;;11.23;3.78;;;15.90;99.90;;;;;;5062472;28;20049;-82
2022/05/17 00:06:55;;;;;;;11.85;2.85;;;15.90;99.90;;;;;;5048828;28;20416;-82
2022/05/17 00:09:21;;;;;;;12.60;3.10;;;15.90;99.90;;;;;;5070107;28;20060;-83
2022/05/17 00:11:48;;;;;;;9.18;3.17;;;15.90;99.90;;;;;;5062819;28;20051;-83
2022/05/17 00:14:15;;;;;;;11.82;3.55;;;15.90;99.90;;;;;;5051572;28;20062;-83
2022/05/17 00:16:43;;;;;;;10.05;3.53;;;16.10;99.90;;;;;;5064329;28;20056;-83
2022/05/17 00:19:11;;;;;;;10.88;3.20;;;15.90;99.90;;;;;;5086523;28;20052;-82
2022/05/17 00:21:38;;;;;;;10.02;3.30;;;15.90;99.90;;;;;;5076961;28;20543;-83
2022/05/17 00:24:05;;;;;;;10.63;3.05;;;15.90;99.90;;;;;;5061827;28;20084;-83
2022/05/17 00:26:34;;;;;;;8.55;2.95;;;15.90;99.90;;;;;;5045866;28;20058;-83
2022/05/17 00:29:04;;;;;;;11.65;3.40;;;15.80;99.90;;;;;;5051863;28;20036;-82
2022/05/17 00:31:30;;;;;;;13.25;3.10;;;15.80;99.90;;;;;;5069453;28;20044;-83
2022/05/17 00:33:56;;;;;;;11.70;3.72;;;15.80;99.90;;;;;;5066376;28;20492;-83
2022/05/17 00:36:22;;;;;;;6.80;2.83;;;15.80;99.90;;;;;;5063114;28;20044;-82
2022/05/17 00:38:48;;;;;;;12.00;3.60;;;15.80;99.90;;;;;;5051795;28;20050;-82
2022/05/17 00:41:14;;;;;;;11.25;3.30;;;15.80;99.90;;;;;;5067893;28;20093;-83
2022/05/17 00:46:51;;;;;;;10.27;3.22;;;15.80;99.90;;;;;;5070015;28;20106;-83
2022/05/17 00:49:40;;;;;;;10.77;3.20;;;15.80;99.90;;;;;;5077624;28;20488;-83
2022/05/17 00:52:13;;;;;;;12.02;3.05;;;15.80;99.90;;;;;;5069562;28;20063;-82
2022/05/17 00:54:42;;;;;;;11.75;3.35;;;15.70;99.90;;;;;;5063083;28;20113;-83
2022/05/17 00:57:23;;;;;;;9.15;2.63;;;15.80;99.90;;;;;;5083711;28;20374;-83
2022/05/17 00:59:50;;;;;;;9.15;3.00;;;15.70;99.90;;;;;;5062632;28;20119;-83
2022/05/17 01:02:16;;;;;;;11.07;2.97;;;15.70;99.90;;;;;;5069169;28;20048;-83
2022/05/17 01:04:42;;;;;;;10.23;3.03;;;15.70;99.90;;;;;;5068134;28;20050;-83
2022/05/17 01:07:13;;;;;;;12.35;2.85;;;15.70;99.90;;;;;;5061933;28;20036;-83
2022/05/17 01:09:38;;;;;;;11.88;3.40;;;15.70;99.90;;;;;;5083585;28;20516;-82
2022/05/17 01:12:05;;;;;;;10.05;3.10;;;15.70;99.90;;;;;;5078830;28;20049;-82
2022/05/17 01:17:16;;;;;;;9.70;2.85;;;15.70;99.90;;;;;;5079396;28;20166;-82
2022/05/17 01:19:43;;;;;;;9.07;2.78;;;15.70;99.90;;;;;;5052569;28;20524;-83
2022/05/17 01:22:10;;;;;;;12.18;3.10;;;15.70;99.90;;;;;;5080902;28;20079;-82
2022/05/17 01:24:37;;;;;;;9.63;2.85;;;15.70;99.90;;;;;;5070089;28;20085;-82
2022/05/17 01:27:12;;;;;;;11.05;3.10;;;15.60;99.90;;;;;;5078870;28;20075;-83
2022/05/17 01:29:41;;;;;;;10.10;2.72;;;15.60;99.90;;;;;;5070144;28;20047;-82
2022/05/17 01:32:09;;;;;;;11.73;3.03;;;15.20;99.90;;;;;;5063466;28;20156;-82
2022/05/17 01:34:36;;;;;;;14.98;3.20;;;15.60;99.90;;;;;;5060050;28;20058;-83
2022/05/17 01:37:04;;;;;;;10.20;2.95;;;15.60;99.90;;;;;;5048606;28;20050;-82
2022/05/17 01:39:31;;;;;;;10.27;2.92;;;15.60;99.90;;;;;;5060397;28;20036;-83
2022/05/17 01:41:57;;;;;;;11.25;2.50;;;15.60;99.90;;;;;;5073625;28;20052;-82
2022/05/17 01:44:23;;;;;;;10.50;3.35;;;15.50;99.90;;;;;;5062054;28;20501;-82
2022/05/17 01:46:49;;;;;;;14.02;3.22;;;15.60;99.90;;;;;;5045137;28;20048;-82
2022/05/17 01:49:16;;;;;;;10.75;3.03;;;15.60;99.90;;;;;;5065893;28;20044;-82
2022/05/17 01:51:42;;;;;;;13.40;3.38;;;15.50;99.90;;;;;;5043385;28;20053;-82
2022/05/17 01:54:08;;;;;;;9.75;3.28;;;15.50;99.90;;;;;;5059661;28;20051;-82
2022/05/17 01:56:34;;;;;;;13.05;3.10;;;14.90;99.90;;;;;;5063987;28;20044;-83
2022/05/17 01:59:00;;;;;;;11.20;2.60;;;14.80;99.90;;;;;;5044211;28;20105;-82
2022/05/17 02:01:26;;;;;;;11.65;2.90;;;15.50;99.90;;;;;;5077681;28;20102;-82
2022/05/17 02:03:52;;;;;;;13.63;2.97;;;15.50;99.90;;;;;;5050241;28;20048;-82
2022/05/17 02:06:18;;;;;;;8.65;2.75;;;15.10;99.90;;;;;;5078595;28;20040;-82
2022/05/17 02:08:44;;;;;;;13.15;3.30;;;15.50;99.90;;;;;;5062708;28;20520;-83
2022/05/17 02:11:10;;;;;;;8.80;2.90;;;15.50;99.90;;;;;;5074854;28;20052;-82
2022/05/17 02:13:38;;;;;;;8.77;2.53;;;15.50;99.90;;;;;;5042522;28;20047;-82
2022/05/17 02:16:08;;;;;;;12.32;3.50;;;15.50;99.90;;;;;;5060589;28;20523;-83
2022/05/17 02:18:35;;;;;;;9.85;3.00;;;15.50;99.90;;;;;;5045544;28;20072;-82
2022/05/17 02:21:01;;;;;;;12.75;3.00;;;15.50;99.90;;;;;;5065728;28;20342;-82
2022/05/17 02:23:27;;;;;;;9.50;2.95;;;15.50;99.90;;;;;;5050757;28;20063;-82
2022/05/17 02:25:54;;;;;;;8.65;2.88;;;15.50;99.90;;;;;;5077980;28;20055;-82
2022/05/17 02:28:20;;;;;;;11.52;2.42;;;15.40;99.90;;;;;;5073640;28;20052;-81
2022/05/17 02:30:45;;;;;;;9.00;2.65;;;15.40;99.90;;;;;;5079315;28;20040;-82
2022/05/17 02:33:12;;;;;;;13.05;3.30;;;15.40;99.90;;;;;;5068347;28;20105;-82
2022/05/17 02:35:39;;;;;;;11.10;3.35;;;15.40;99.90;;;;;;5045627;28;20052;-83
2022/05/17 02:38:06;;;;;;;13.57;3.25;;;15.40;99.90;;;;;;5046145;28;20098;-82
2022/05/17 02:40:32;;;;;;;10.60;3.05;;;15.40;99.90;;;;;;5077677;28;20490;-83
2022/05/17 02:42:58;;;;;;;14.98;3.22;;;15.40;99.90;;;;;;5050495;28;20564;-83
2022/05/17 02:45:24;;;;;;;11.68;3.10;;;15.40;99.90;;;;;;5049565;28;20047;-83
2022/05/17 02:47:49;;;;;;;12.55;3.60;;;15.40;99.90;;;;;;5050849;28;20127;-83
2022/05/17 02:50:16;;;;;;;10.13;3.15;;;15.40;99.90;;;;;;5046848;28;20507;-82
2022/05/17 02:52:41;;;;;;;13.50;3.20;;;15.40;99.90;;;;;;5069833;28;20044;-82
2022/05/17 02:55:08;;;;;;;10.93;2.80;;;15.40;99.90;;;;;;5053402;28;20439;-82
2022/05/17 02:57:35;;;;;;;10.90;3.20;;;15.40;99.90;;;;;;5087135;28;20047;-82
2022/05/17 03:00:01;;;;;;;9.82;2.92;;;15.30;99.90;;;;;;5045934;28;21248;-82
2022/05/17 03:02:27;;;;;;;9.75;2.97;;;15.30;99.90;;;;;;5081286;28;20063;-83
2022/05/17 03:04:53;;;;;;;10.48;2.83;;;15.30;99.90;;;;;;5080377;28;20049;-83
2022/05/17 03:07:18;;;;;;;10.20;2.92;;;15.30;99.90;;;;;;5063357;28;20039;-83
2022/05/17 03:09:44;;;;;;;11.02;3.03;;;15.30;99.90;;;;;;5093759;28;20052;-83
2022/05/17 03:12:10;;;;;;;11.13;3.67;;;15.30;99.90;;;;;;5063183;28;20044;-82
2022/05/17 03:14:36;;;;;;;10.80;3.20;;;15.20;99.90;;;;;;5064996;28;20051;-82
2022/05/17 03:17:12;;;;;;;13.52;3.22;;;15.30;99.90;;;;;;5053812;28;20048;-82
2022/05/17 03:19:39;;;;;;;12.40;3.47;;;15.30;99.90;;;;;;5096557;28;20055;-82
2022/05/17 03:22:05;;;;;;;11.73;4.03;;;15.20;99.90;;;;;;5080305;28;20446;-83
2022/05/17 03:24:31;;;;;;;10.43;2.80;;;15.20;99.90;;;;;;5063629;28;20063;-82
2022/05/17 03:26:57;;;;;;;13.65;4.22;;;15.20;99.90;;;;;;5076400;28;20070;-83
2022/05/17 03:29:23;;;;;;;8.75;2.90;;;15.20;99.90;;;;;;5064038;28;20072;-82
2022/05/17 03:31:50;;;;;;;9.02;3.20;;;15.20;99.90;;;;;;5080404;28;20455;-82
2022/05/17 03:34:15;;;;;;;13.30;3.80;;;14.30;99.90;;;;;;5077518;28;20055;-82
2022/05/17 03:36:43;;;;;;;13.02;3.22;;;15.10;99.90;;;;;;5066249;28;20049;-82
2022/05/17 03:39:09;;;;;;;11.32;3.13;;;14.80;99.90;;;;;;5053537;28;20127;-83
2022/05/17 03:41:36;;;;;;;10.23;3.05;;;15.20;99.90;;;;;;5069782;28;20516;-82
2022/05/17 03:44:02;;;;;;;8.02;2.92;;;15.20;99.90;;;;;;5079589;28;20103;-80
2022/05/17 03:46:27;;;;;;;10.98;3.50;;;15.20;99.90;;;;;;5043778;28;20054;-80
2022/05/17 03:48:53;;;;;;;12.88;3.22;;;15.20;99.90;;;;;;5053022;28;20452;-81
2022/05/17 03:51:20;;;;;;;10.05;3.03;;;15.20;99.90;;;;;;5064319;28;20635;-82
2022/05/17 03:53:48;;;;;;;10.48;2.92;;;15.10;99.90;;;;;;5062428;28;20044;-82
2022/05/17 03:56:16;;;;;;;13.43;3.10;;;15.10;99.90;;;;;;5069319;28;20054;-80
2022/05/17 03:58:42;;;;;;;10.35;3.13;;;15.10;99.90;;;;;;5086767;28;20053;-80
2022/05/17 04:01:09;;;;;;;13.23;2.92;;;15.10;99.90;;;;;;5046529;28;20047;-81
2022/05/17 04:03:35;;;;;;;9.48;2.88;;;15.10;99.90;;;;;;5063165;28;20127;-80
2022/05/17 04:06:01;;;;;;;9.63;2.80;;;15.10;99.90;;;;;;5080829;28;20467;-81
2022/05/17 04:08:27;;;;;;;10.38;3.15;;;15.10;99.90;;;;;;5063669;28;20041;-80
2022/05/17 04:10:52;;;;;;;9.65;3.25;;;15.20;99.90;;;;;;5052475;28;20052;-81
2022/05/17 04:13:19;;;;;;;11.95;2.92;;;15.10;99.90;;;;;;5065517;28;20123;-81
2022/05/17 04:15:44;;;;;;;12.35;3.00;;;15.20;99.90;;;;;;5070660;28;20044;-81
2022/05/17 04:18:10;;;;;;;10.07;2.67;;;15.20;99.90;;;;;;5081576;28;20048;-80
2022/05/17 04:20:36;;;;;;;11.32;3.35;;;15.20;99.90;;;;;;5079225;28;20051;-83
2022/05/17 04:23:02;;;;;;;10.40;3.38;;;15.20;99.90;;;;;;5074979;28;20142;-82
2022/05/17 04:25:28;;;;;;;11.60;3.33;;;15.20;99.90;;;;;;5078682;28;20090;-83
2022/05/17 04:27:55;;;;;;;8.30;3.05;;;15.20;99.90;;;;;;5052791;28;20067;-82
2022/05/17 04:30:21;;;;;;;13.52;3.10;;;15.00;99.90;;;;;;5093827;28;20044;-82
2022/05/17 04:32:48;;;;;;;9.40;3.28;;;15.20;99.90;;;;;;5069168;28;20057;-82
2022/05/17 04:35:15;;;;;;;12.60;3.28;;;15.30;99.90;;;;;;5080088;28;20485;-82
2022/05/17 04:37:41;;;;;;;9.75;3.00;;;15.30;99.90;;;;;;5062183;28;20039;-82
2022/05/17 04:40:09;;;;;;;10.25;2.90;;;15.30;99.90;;;;;;5051255;28;20131;-82
2022/05/17 04:42:36;;;;;;;10.63;2.60;;;15.30;99.90;;;;;;5078282;28;20477;-82
2022/05/17 04:45:05;;;;;;;13.35;3.03;;;15.30;99.90;;;;;;5062572;28;20048;-81
2022/05/17 04:47:31;;;;;;;8.32;2.88;;;15.30;99.90;;;;;;5085217;28;20808;-82
2022/05/17 04:49:57;;;;;;;12.20;2.88;;;15.40;99.90;;;;;;5047736;28;20044;-81
2022/05/17 04:52:23;;;;;;;8.48;3.00;;;15.40;99.90;;;;;;5070032;28;20048;-83
2022/05/17 04:54:50;;;;;;;8.55;2.72;;;15.40;99.90;;;;;;5051569;28;20049;-81
2022/05/17 04:57:17;;;;;;;8.45;2.80;;;15.40;99.90;;;;;;5063226;28;20043;-82
2022/05/17 04:59:42;;;;;;;10.35;3.17;;;15.40;99.90;;;;;;5077523;28;20454;-82
2022/05/17 05:02:09;;;;;;;10.05;3.08;;;15.50;99.90;;;;;;5076726;28;20127;-82
2022/05/17 05:04:38;;;;;;;13.60;3.60;;;15.40;99.90;;;;;;5062730;28;20040;-83
2022/05/17 05:07:07;;;;;;;11.70;3.33;;;15.50;99.90;;;;;;5063795;28;20133;-81
2022/05/17 05:09:33;;;;;;;14.40;3.28;;;15.50;99.90;;;;;;5062394;28;20072;-81
2022/05/17 05:11:59;;;;;;;7.97;2.80;;;15.50;99.90;;;;;;5060645;28;20074;-80
2022/05/17 05:14:25;;;;;;;10.13;3.03;;;15.50;99.90;;;;;;5077497;28;20051;-80
2022/05/17 05:16:51;;;;;;;9.52;3.08;;;15.50;99.90;;;;;;5066277;28;20098;-82
2022/05/17 05:19:18;;;;;;;8.90;3.15;;;15.50;99.90;;;;;;5079775;28;20477;-81
2022/05/17 05:21:44;;;;;;;14.38;3.45;;;15.50;99.90;;;;;;5085329;28;20112;-81
2022/05/17 05:24:11;;;;;;;9.68;2.60;;;15.50;99.90;;;;;;5061901;28;20052;-84
2022/05/17 05:26:38;;;;;;;11.95;3.47;;;15.50;99.90;;;;;;5064038;28;20050;-83
2022/05/17 05:29:05;;;;;;;7.95;2.83;;;15.60;99.90;;;;;;5081219;28;20529;-84
2022/05/17 05:31:31;;;;;;;10.60;3.22;;;15.60;99.90;;;;;;5050571;28;20112;-83
2022/05/17 05:34:00;;;;;;;11.68;3.20;;;15.60;99.90;;;;;;5069905;28;20086;-86
2022/05/17 05:36:27;;;;;;;10.32;2.75;;;15.70;99.90;;;;;;5062648;28;20067;-86
2022/05/17 05:39:02;;;;;;;12.85;3.00;;;15.70;99.90;;;;;;5071490;28;20050;-85
2022/05/17 05:41:28;;;;;;;11.93;3.50;;;14.90;99.90;;;;;;5064098;28;20047;-84
2022/05/17 05:43:54;;;;;;;10.15;3.15;;;15.70;99.90;;;;;;5044172;28;20643;-82
2022/05/17 05:46:20;;;;;;;10.48;2.90;;;15.80;99.90;;;;;;5074138;28;20036;-83
2022/05/17 05:48:46;;;;;;;11.48;3.38;;;15.80;99.90;;;;;;5061951;28;20975;-83
2022/05/17 05:51:12;;;;;;;8.77;2.78;;;15.80;99.90;;;;;;5043491;28;20773;-83
2022/05/17 05:53:38;;;;;;;14.85;3.58;;;16.20;99.90;;;;;;5064389;28;20040;-84
2022/05/17 05:56:05;;;;;;;12.35;2.85;;;15.90;99.90;;;;;;5058301;28;20057;-83
2022/05/17 05:58:34;;;;;;;9.73;3.10;;;15.90;99.90;;;;;;5063125;28;20079;-83
2022/05/17 06:01:00;;;;;;;10.45;3.65;;;15.90;99.90;;;;;;5060062;28;20114;-84
2022/05/17 06:03:27;;;;;;;11.38;3.33;;;15.90;99.90;;;;;;5058826;28;20119;-84
2022/05/17 06:05:53;;;;;;;10.00;2.83;;;16.00;99.90;;;;;;5058652;28;20832;-82
2022/05/17 06:08:19;;;;;;;9.35;2.90;;;16.00;99.90;;;;;;5089113;28;20052;-79
2022/05/17 06:10:45;;;;;;;11.55;2.95;;;16.00;99.90;;;;;;5048952;28;20063;-79
2022/05/17 06:13:14;;;;;;;9.10;2.75;;;16.00;99.90;;;;;;5064113;28;20048;-80
2022/05/17 06:15:40;;;;;;;9.88;3.50;;;16.10;99.90;;;;;;5062815;28;20100;-79
2022/05/17 06:18:07;;;;;;;9.18;2.80;;;16.10;99.90;;;;;;5045912;28;20052;-79
2022/05/17 06:20:34;;;;;;;13.60;3.38;;;16.10;99.90;;;;;;5047409;28;20477;-79
2022/05/17 06:23:00;;;;;;;9.82;3.25;;;16.20;99.90;;;;;;5059212;28;20127;-79
2022/05/17 06:25:26;;;;;;;13.05;2.92;;;16.20;99.90;;;;;;5060855;28;20500;-78
2022/05/17 06:27:52;;;;;;;13.70;3.55;;;16.30;99.90;;;;;;5079618;28;20096;-79
2022/05/17 06:30:18;;;;;;;11.75;3.60;;;16.30;99.90;;;;;;5063286;28;20148;-78
2022/05/17 06:32:44;;;;;;;12.18;3.00;;;16.40;99.90;;;;;;5050094;28;20127;-79
2022/05/17 06:35:11;;;;;;;9.82;3.30;;;16.40;99.90;;;;;;5080090;28;20735;-79
2022/05/17 06:37:37;;;;;;;14.73;3.10;;;16.40;99.90;;;;;;5080771;28;20044;-79
2022/05/17 06:40:05;;;;;;;10.68;3.17;;;16.40;99.90;;;;;;5062064;28;20443;-79
2022/05/17 06:42:32;;;;;;;9.23;3.10;;;16.40;99.90;;;;;;5094667;27;20048;-79
2022/05/17 06:44:58;;;;;;;11.50;3.38;;;16.50;99.90;;;;;;5048213;28;20481;-79
2022/05/17 06:47:24;;;;;;;13.65;2.90;;;16.50;99.90;;;;;;5068850;28;20040;-79
2022/05/17 06:49:50;;;;;;;14.45;3.63;;;16.50;99.90;;;;;;5062621;28;20398;-79
2022/05/17 06:52:16;;;;;;;10.90;3.05;;;16.60;99.90;;;;;;5062974;28;20358;-79
2022/05/17 06:54:43;;;;;;;7.20;2.92;;;16.70;99.90;;;;;;5051318;28;20549;-79
2022/05/17 06:57:11;;;;;;;11.07;3.63;;;16.80;99.90;;;;;;5062664;28;20051;-79
2022/05/17 06:59:39;;;;;;;11.23;3.10;;;16.90;99.90;;;;;;5078607;28;20485;-80
2022/05/17 07:02:05;;;;;;;11.18;3.28;;;16.90;99.90;;;;;;5050617;28;20102;-80
2022/05/17 07:04:33;;;;;;;12.98;3.05;;;16.90;99.90;;;;;;5050143;28;20502;-80
2022/05/17 07:06:59;;;;;;;14.07;3.08;;;16.90;99.90;;;;;;5064930;28;20063;-80
2022/05/17 07:09:26;;;;;;;12.40;3.42;;;17.00;99.90;;;;;;5065710;28;20802;-80
2022/05/17 07:14:37;;;;;;;12.80;2.92;;;17.10;99.90;;;;;;5067882;28;20075;-79
2022/05/17 07:17:04;;;;;;;9.38;2.60;;;17.10;99.90;;;;;;5097297;27;20131;-80
2022/05/17 07:19:34;;;;;;;10.50;3.15;;;17.30;99.90;;;;;;5061833;28;20067;-80
2022/05/17 07:22:01;;;;;;;9.93;2.78;;;17.40;99.90;;;;;;5050382;28;20134;-80
2022/05/17 07:24:27;;;;;;;9.05;2.72;;;17.50;99.90;;;;;;5062842;28;20130;-82
2022/05/17 07:26:54;;;;;;;13.63;3.25;;;17.60;99.90;;;;;;5064830;28;20055;-79
2022/05/17 07:29:20;;;;;;;13.00;2.72;;;17.70;99.90;;;;;;5063712;28;22562;-80
2022/05/17 07:31:46;;;;;;;10.25;3.00;;;17.70;99.90;;;;;;5078106;28;20066;-79
2022/05/17 07:34:12;;;;;;;11.18;3.50;;;17.80;99.90;;;;;;5077387;28;20044;-79
2022/05/17 07:36:38;;;;;;;10.70;3.33;;;18.00;99.90;;;;;;5048949;28;20049;-79
2022/05/17 07:39:04;;;;;;;11.65;3.17;;;18.20;99.90;;;;;;5048490;28;20444;-79
2022/05/17 07:41:31;;;;;;;11.55;2.70;;;18.30;99.90;;;;;;5062974;28;20104;-78
2022/05/17 07:43:57;;;;;;;10.25;3.45;;;18.40;99.90;;;;;;5047648;28;20161;-78
2022/05/17 07:46:23;;;;;;;8.32;3.03;;;18.40;99.90;;;;;;5046726;28;20051;-78
2022/05/17 07:48:49;;;;;;;11.50;3.63;;;18.30;99.90;;;;;;5062731;28;20052;-78
2022/05/17 07:51:15;;;;;;;12.32;3.10;;;18.40;99.90;;;;;;5046119;28;20056;-78
2022/05/17 07:53:41;;;;;;;9.02;3.25;;;18.60;99.90;;;;;;5096712;28;20524;-78
2022/05/17 07:56:07;;;;;;;13.52;3.60;;;18.70;99.90;;;;;;5063361;28;20109;-78
2022/05/17 07:58:33;;;;;;;9.85;3.50;;;18.90;99.90;;;;;;5055239;28;20101;-79
2022/05/17 08:00:58;;;;;;;9.43;2.80;;;19.00;99.90;;;;;;5079231;28;20505;-79
2022/05/17 08:03:24;;;;;;;10.40;3.13;;;19.10;99.90;;;;;;5062828;28;20504;-79
2022/05/17 08:05:52;;;;;;;10.77;3.00;;;19.20;99.90;;;;;;5070574;28;20493;-80
2022/05/17 08:08:18;;;;;;;8.77;2.85;;;19.30;99.90;;;;;;5080135;28;20461;-79
2022/05/17 08:10:47;;;;;;;8.40;3.28;;;19.40;99.90;;;;;;5053849;28;20113;-79
2022/05/17 08:13:46;;;;;;;9.02;2.92;;;19.70;99.90;;;;;;5074276;28;20397;-80
2022/05/17 08:16:12;;;;;;;10.40;3.10;;;19.80;99.90;;;;;;5062212;28;20102;-81
2022/05/17 08:18:41;;;;;;;13.27;3.00;;;19.80;99.90;;;;;;5096521;28;20087;-81
2022/05/17 08:21:28;;;;;;;12.70;2.90;;;20.00;99.90;;;;;;5069670;28;20505;-81
2022/05/17 08:23:54;;;;;;;10.45;2.65;;;20.30;99.90;;;;;;5045225;28;20044;-81
2022/05/17 08:29:04;;;;;;;10.20;3.10;;;20.40;99.90;;;;;;5079700;28;20139;-81
2022/05/17 08:31:30;;;;;;;11.68;3.75;;;20.60;99.90;;;;;;5062145;28;20068;-81
2022/05/17 08:33:55;;;;;;;9.25;2.38;;;20.80;99.90;;;;;;5079311;28;20047;-80
2022/05/17 08:36:21;;;;;;;8.48;2.83;;;20.90;99.90;;;;;;5053720;28;20112;-83
2022/05/17 08:38:49;;;;;;;10.98;2.90;;;21.10;99.90;;;;;;5036021;28;20071;-80
2022/05/17 08:41:26;;;;;;;10.18;3.22;;;21.20;99.90;;;;;;5059818;28;20055;-80
2022/05/17 08:43:54;;;;;;;11.15;2.70;;;21.10;99.90;;;;;;5062530;28;20044;-80
2022/05/17 08:46:33;;;;;;;7.85;3.00;;;21.10;99.90;;;;;;4985146;28;20109;-80
2022/05/17 08:49:23;;;;;;;12.43;2.72;;;21.20;99.90;;;;;;4960585;28;20491;-80
2022/05/17 08:52:02;;;;;;;9.52;2.50;;;21.30;99.90;;;;;;5095168;28;20427;-80
2022/05/17 08:55:01;;;;;;;8.43;2.83;;;21.30;99.90;;;;;;5067272;28;20044;-80
2022/05/17 08:57:48;;;;;;;9.70;2.85;;;21.50;99.90;;;;;;5062778;28;20151;-80
2022/05/17 09:00:39;;;;;;;6.25;2.47;;;21.70;99.90;;;;;;5069010;28;20050;-80
2022/05/17 09:03:29;;;;;;;9.30;2.72;;;22.00;99.90;;;;;;5084880;28;20075;-80
2022/05/17 09:06:03;;;;;;;9.00;2.95;;;22.10;99.90;;;;;;5081746;28;20047;-83
2022/05/17 09:08:58;;;;;;;12.75;3.35;;;22.10;99.90;;;;;;5082364;28;20457;-83
2022/05/17 09:11:32;;;;;;;11.40;3.28;;;22.20;99.90;;;;;;5061680;28;20079;-82
2022/05/17 09:14:05;;;;;;;11.80;2.92;;;22.20;99.90;;;;;;5062295;28;20480;-82
2022/05/17 09:16:40;;;;;;;9.05;2.67;;;22.30;99.90;;;;;;5058990;28;20086;-83
2022/05/17 09:19:06;;;;;;;7.45;2.47;;;22.30;99.90;;;;;;5074587;28;20177;-82
2022/05/17 09:21:41;;;;;;;11.32;2.60;;;22.30;99.90;;;;;;5064673;28;20412;-82
2022/05/17 09:24:12;;;;;;;9.57;2.58;;;22.30;99.90;;;;;;5078362;28;20101;-80
2022/05/17 09:26:38;;;;;;;10.68;2.83;;;22.50;99.90;;;;;;5065279;28;20047;-81
2022/05/17 09:29:24;;;;;;;9.48;2.50;;;22.70;99.90;;;;;;5071638;28;20044;-82
2022/05/17 09:32:01;;;;;;;6.93;2.33;;;22.80;99.90;;;;;;5061280;28;20064;-81
2022/05/17 09:34:33;;;;;;;8.88;2.63;;;23.00;99.90;;;;;;5066321;28;20048;-82
2022/05/17 09:37:14;;;;;;;7.38;2.45;;;23.10;99.90;;;;;;5082659;28;20052;-82
2022/05/17 09:39:46;;;;;;;6.28;2.50;;;23.20;99.90;;;;;;5092517;28;20079;-81
2022/05/17 09:42:29;;;;;;;7.20;2.30;;;23.10;99.90;;;;;;5081262;28;20070;-81
2022/05/17 09:44:56;;;;;;;10.43;2.78;;;23.10;99.90;;;;;;5077711;28;20091;-80
2022/05/17 09:47:29;;;;;;;9.80;2.63;;;23.10;99.90;;;;;;5078717;28;20051;-80
2022/05/17 09:52:45;;;;;;;8.00;2.50;;;23.00;99.90;;;;;;5070438;28;20137;-81
2022/05/17 09:55:20;;;;;;;10.50;2.78;;;23.10;99.90;;;;;;5078645;28;20993;-82
2022/05/17 09:58:09;;;;;;;10.57;2.50;;;23.10;99.90;;;;;;5060975;28;20526;-83
2022/05/17 10:00:46;;;;;;;9.23;2.70;;;23.10;99.90;;;;;;5060028;28;20286;-83
2022/05/17 10:03:15;;;;;;;8.25;2.42;;;23.00;99.90;;;;;;5079311;28;20060;-82
2022/05/17 10:05:40;;;;;;;8.18;2.35;;;23.10;99.90;;;;;;5076793;28;20051;-83
2022/05/17 10:08:15;;;;;;;7.78;2.20;;;23.10;99.90;;;;;;5075859;28;20048;-80
2022/05/17 10:11:00;;;;;;;7.07;2.65;;;23.40;99.90;;;;;;5076826;28;20539;-80
2022/05/17 10:14:01;;;;;;;7.20;1.83;;;23.40;99.90;;;;;;5092629;28;20080;-87
2022/05/17 10:16:36;;;;;;;9.40;2.35;;;23.70;99.90;;;;;;5061908;28;20052;-86
2022/05/17 10:19:30;;;;;;;7.97;2.38;;;24.10;99.90;;;;;;5084982;28;20066;-81
2022/05/17 10:22:04;;;;;;;6.35;2.22;;;24.30;99.90;;;;;;5094277;28;20072;-81
2022/05/17 10:24:45;;;;;;;6.90;1.95;;;24.30;99.90;;;;;;5077285;28;20075;-81
2022/05/17 10:27:25;;;;;;;7.22;2.33;;;24.60;99.90;;;;;;5077333;28;20250;-82
2022/05/17 10:29:54;;;;;;;7.28;2.10;;;25.00;99.90;;;;;;5077084;28;20120;-82
2022/05/17 10:32:24;;;;;;;7.03;1.98;;;25.10;99.90;;;;;;5093389;28;20060;-82
2022/05/17 10:35:08;;;;;;;7.82;2.25;;;25.10;99.90;;;;;;5060771;28;20053;-83
2022/05/17 10:37:44;;;;;;;7.90;2.55;;;24.90;99.90;;;;;;5079561;28;20060;-86
2022/05/17 10:40:14;;;;;;;11.25;2.35;;;25.00;99.90;;;;;;5085831;28;20522;-86
2022/05/17 10:42:44;;;;;;;7.57;2.17;;;25.10;99.90;;;;;;5084249;28;20044;-91
2022/05/17 10:45:17;;;;;;;6.53;1.98;;;25.20;99.90;;;;;;5068248;28;20059;-82
2022/05/17 10:47:47;;;;;;;7.65;2.53;;;25.10;99.90;;;;;;5084973;28;20044;-82
2022/05/17 10:50:21;;;;;;;9.68;2.63;;;24.90;99.90;;;;;;5084155;28;20048;-82
2022/05/17 10:53:08;;;;;;;8.15;2.47;;;24.90;99.90;;;;;;5067350;28;20052;-81
2022/05/17 10:55:56;;;;;;;6.80;2.10;;;24.80;99.90;;;;;;5059246;28;20052;-81
2022/05/17 10:58:32;;;;;;;8.57;2.30;;;24.80;99.90;;;;;;5084773;28;20127;-81
2022/05/17 11:01:17;;;;;;;7.88;2.38;;;25.00;99.90;;;;;;5060948;28;20397;-82
2022/05/17 11:04:18;;;;;;;11.20;2.80;;;25.10;99.70;;;;;;5078140;28;20076;-82
2022/05/17 11:07:10;;;;;;;8.57;2.05;;;25.20;99.90;;;;;;5046695;28;20488;-82
2022/05/17 11:09:59;;;;;;;5.57;1.90;;;25.20;99.50;;;;;;5084019;28;20138;-81
2022/05/17 11:12:32;;;;;;;10.85;2.40;;;25.20;98.90;;;;;;5068379;28;20059;-81
2022/05/17 11:15:09;;;;;;;11.65;1.90;;;25.10;99.90;;;;;;5064272;28;20075;-82
2022/05/17 11:17:56;;;;;;;7.15;1.90;;;25.30;99.90;;;;;;5063334;28;20058;-82
2022/05/17 11:20:26;;;;;;;7.45;1.63;;;25.50;99.60;;;;;;5081431;28;20105;-80
2022/05/17 11:23:08;;;;;;;6.95;1.75;;;25.80;99.50;;;;;;5089677;28;20047;-80
2022/05/17 11:25:57;;;;;;;7.15;1.67;;;26.00;99.20;;;;;;5080294;28;20090;-79
2022/05/17 11:29:03;;;;;;;6.82;1.60;;;26.00;97.90;;;;;;5081261;28;20051;-81
2022/05/17 11:31:29;;;;;;;7.27;2.07;;;26.00;97.20;;;;;;5076549;28;20562;-80
2022/05/17 11:34:26;;;;;;;4.57;1.48;;;26.00;98.30;;;;;;5088232;28;20044;-80
2022/05/17 11:36:57;;;;;;;6.85;1.92;;;26.10;96.50;;;;;;5088728;28;20083;-85
2022/05/17 11:39:50;;;;;;;5.80;1.67;;;26.00;96.50;;;;;;5089041;28;20051;-86
2022/05/17 11:45:44;;;;;;;5.13;1.50;;;26.30;94.30;;;;;;5079493;28;20100;-86
2022/05/17 11:48:42;;;;;;;3.85;1.27;;;26.40;93.90;;;;;;5083187;28;20047;-86
2022/05/17 11:51:11;;;;;;;3.45;1.05;;;26.50;92.10;;;;;;5064419;28;20048;-85
2022/05/17 11:53:50;;;;;;;4.80;1.83;;;26.60;92.80;;;;;;5074552;28;20044;-86
2022/05/17 11:56:25;;;;;;;4.40;1.50;;;26.80;90.70;;;;;;5088801;28;20044;-86
2022/05/17 11:59:07;;;;;;;3.70;1.20;;;26.40;90.10;;;;;;5085655;28;20055;-86
2022/05/17 12:01:40;;;;;;;5.22;1.77;;;26.70;89.70;;;;;;5098570;28;20075;-84
2022/05/17 12:04:21;;;;;;;4.20;1.25;;;27.00;90.50;;;;;;5067139;28;20063;-86
2022/05/17 12:07:03;;;;;;;5.60;1.50;;;27.10;90.00;;;;;;5070561;28;20532;-87
2022/05/17 12:09:38;;;;;;;4.82;1.70;;;27.00;88.00;;;;;;5078853;28;20124;-85
2022/05/17 12:12:20;;;;;;;5.50;1.83;;;26.90;87.40;;;;;;5063702;28;20059;-87
2022/05/17 12:14:57;;;;;;;6.38;1.80;;;26.70;88.00;;;;;;5078372;28;20044;-86
2022/05/17 12:17:30;;;;;;;4.05;1.30;;;27.00;88.10;;;;;;5087094;28;20048;-88
2022/05/17 12:20:05;;;;;;;4.80;1.20;;;27.10;87.20;;;;;;5072264;28;20084;-86
2022/05/17 12:22:58;;;;;;;4.28;1.60;;;27.20;87.00;;;;;;5065441;28;20052;-87
2022/05/17 12:25:53;;;;;;;7.32;1.60;;;27.20;82.90;;;;;;5096070;28;20092;-85
2022/05/17 12:28:26;;;;;;;4.43;1.15;;;27.10;84.50;;;;;;5080329;28;20048;-87
2022/05/17 12:31:00;;;;;;;5.30;1.38;;;27.10;84.70;;;;;;5068942;28;20043;-85
2022/05/17 12:33:40;;;;;;;4.93;1.10;;;27.30;84.90;;;;;;5087982;28;20135;-89
2022/05/17 12:36:19;;;;;;;5.28;1.40;;;27.80;82.80;;;;;;5072378;28;20131;-88
2022/05/17 12:44:47;;;;;;;3.05;1.10;;;27.70;75.80;;;;;;5089437;28;20044;-90
2022/05/17 12:47:22;;;;;;;3.95;1.15;;;27.80;77.80;;;;;;5065970;28;20078;-89
2022/05/17 12:49:53;;;;;;;4.45;1.10;;;28.00;74.90;;;;;;5088262;28;20105;-90
2022/05/17 12:52:30;;;;;;;3.85;1.38;;;28.00;73.60;;;;;;5074780;28;20056;-87
2022/05/17 12:55:04;;;;;;;6.18;1.42;;;27.90;72.20;;;;;;5107229;28;20070;-88
2022/05/17 12:57:38;;;;;;;2.63;1.10;;;27.90;74.40;;;;;;5096111;28;20104;-86
2022/05/17 13:00:13;;;;;;;3.97;1.48;;;28.00;73.00;;;;;;5095427;28;20555;-88
2022/05/17 13:03:03;;;;;;;3.60;1.10;;;28.30;73.30;;;;;;5085696;28;20048;-89
2022/05/17 13:05:40;;;;;;;5.22;1.40;;;28.20;71.80;;;;;;5065518;28;20056;-88
2022/05/17 13:08:18;;;;;;;7.75;1.30;;;27.80;72.40;;;;;;5081812;28;20214;-89
2022/05/17 13:11:01;;;;;;;3.58;1.20;;;27.30;71.40;;;;;;5087007;28;20056;-86
2022/05/17 13:13:28;;;;;;;5.32;1.38;;;26.80;71.80;;;;;;5071098;28;20060;-87
2022/05/17 13:16:10;;;;;;;5.65;1.13;;;26.60;73.70;;;;;;5070867;28;20083;-88
2022/05/17 13:18:45;;;;;;;3.85;1.35;;;26.70;74.00;;;;;;5071793;28;20489;-89
2022/05/17 13:21:28;;;;;;;3.22;1.05;;;27.00;74.10;;;;;;5087464;28;20570;-88
2022/05/17 13:24:00;;;;;;;5.88;1.55;;;27.10;72.40;;;;;;5061470;28;20102;-88